タシュケント の空港の天気 - METARとTAF

タシケント空港 ( UTTT / TAS ) - ウズベキスタン タシュケント
飛行場実況気象(Metar)
観測時間02/18 03:30 UZT (02/17 22:30 UTC)
風向・風速東北東 2m/s
視程10km以上
天気現象
なし
気温1℃
湿度80%
気圧1014hPa
METARUTTT 172230Z 06004KT CAVOK 01/M02 Q1014 R08R/CLRD70 NOSIG
過去の天気等 Google飛行場航空写真 Wunderground天気予報

過去48時間のMETAR

飛行場予報(TAF)
発表時間: 2/17 22:00 UZT (2/17 17:00 UTC)
予報対象時間: 17日23時 UZT ~ 18日23時 UZT
風向・風速西北西 5m/s
視程7000m
全天の4割程度の雲 雲底高度 300m
全天の8割程度の積乱雲 雲底高度 1220m
全天を覆う雲 雲底高度 3050m
17日23時 UZT ~ 18日5時 UZT に一時的に
風向・風速西北西 5m/s 瞬間風速 10m/s
視程3000m
天気現象弱いしゅう雨 もや
全天の4割程度の雲 雲底高度 210m
全天の8割程度の積乱雲 雲底高度 910m
18日5時 UZT ~ 18日11時 UZT に一時的に
視程2100m
天気現象弱い雨雪 もや
全天の8割程度の雲 雲底高度 150m
TAF UTTT 171700Z 1718/1818 30010KT 7000 SCT010 BKN040CB OVC100
TEMPO 1718/1724 30010G20KT 3000 -SHRA BR SCT007 BKN030CB
TEMPO 1800/1806 2100 -RASN BR BKN005